createdAt,value
2018-07-21T00:02:15.759Z,21.20
2018-07-21T00:04:46.995Z,21.10
2018-07-21T00:09:48.881Z,20.90
2018-07-21T00:12:20.261Z,20.50
2018-07-21T00:14:51.888Z,20.30
2018-07-21T00:17:23.098Z,20.40
2018-07-21T00:19:54.502Z,20.80
2018-07-21T00:22:25.895Z,21.00
2018-07-21T00:24:57.115Z,21.00
2018-07-21T00:27:28.390Z,21.10
2018-07-21T00:29:59.667Z,21.10
2018-07-21T00:35:01.712Z,21.10
2018-07-21T00:37:33.262Z,21.00
2018-07-21T00:40:05.400Z,21.00
2018-07-21T00:42:36.690Z,21.00
2018-07-21T00:45:08.230Z,20.90
2018-07-21T00:47:39.755Z,20.70
2018-07-21T00:50:11.368Z,20.80
2018-07-21T00:52:42.851Z,20.80
2018-07-21T00:55:17.283Z,20.90
2018-07-21T00:57:48.578Z,21.00
2018-07-21T01:00:19.974Z,20.90
2018-07-21T01:02:51.235Z,21.00
2018-07-21T01:05:22.877Z,21.00
2018-07-21T01:07:54.402Z,20.90
2018-07-21T01:10:25.718Z,20.70
2018-07-21T01:12:57.466Z,20.40
2018-07-21T01:15:29.956Z,20.50
2018-07-21T01:18:01.263Z,20.50
2018-07-21T01:20:32.674Z,20.60
2018-07-21T01:23:04.047Z,20.60
2018-07-21T01:25:35.304Z,20.50
2018-07-21T01:30:37.191Z,20.50
2018-07-21T01:33:15.002Z,20.30
2018-07-21T01:35:46.246Z,19.90
2018-07-21T01:38:17.515Z,20.00
2018-07-21T01:40:48.722Z,20.10
2018-07-21T01:43:20.123Z,20.20
2018-07-21T01:45:51.394Z,20.10
2018-07-21T01:48:23.760Z,20.00
2018-07-21T01:50:55.594Z,19.80
2018-07-21T01:55:57.449Z,19.80
2018-07-21T01:58:28.712Z,19.80
2018-07-21T02:00:59.953Z,19.90
2018-07-21T02:03:31.326Z,19.80
2018-07-21T02:06:02.626Z,19.90
2018-07-21T02:08:33.811Z,19.90
2018-07-21T02:11:05.431Z,20.10
2018-07-21T02:16:07.826Z,19.80
2018-07-21T02:18:39.225Z,19.70
2018-07-21T02:21:10.809Z,19.60
2018-07-21T02:23:42.122Z,19.50
2018-07-21T02:26:13.522Z,19.30
2018-07-21T02:28:44.917Z,19.30
2018-07-21T02:31:16.420Z,19.20
2018-07-21T02:33:47.703Z,19.20
2018-07-21T02:36:19.160Z,19.20
2018-07-21T02:38:50.461Z,19.20
2018-07-21T02:41:21.945Z,19.20
2018-07-21T02:43:53.421Z,19.20
2018-07-21T02:46:24.764Z,19.20
2018-07-21T02:48:56.090Z,19.30
2018-07-21T02:51:27.527Z,19.20
2018-07-21T02:53:58.828Z,19.10
2018-07-21T02:56:30.050Z,19.10
2018-07-21T02:59:01.408Z,19.00
2018-07-21T03:01:32.932Z,19.00
2018-07-21T03:06:35.041Z,19.50
2018-07-21T03:09:11.259Z,19.60
2018-07-21T03:11:43.018Z,19.40
2018-07-21T03:14:14.642Z,19.20
2018-07-21T03:16:46.039Z,19.10
2018-07-21T03:19:17.405Z,19.10
2018-07-21T03:21:48.614Z,19.10
2018-07-21T03:24:19.881Z,19.10
2018-07-21T03:26:51.154Z,19.00
2018-07-21T03:29:22.541Z,18.90
2018-07-21T03:31:53.792Z,18.80
2018-07-21T03:34:25.343Z,18.80
2018-07-21T03:36:56.583Z,18.50
2018-07-21T03:39:28.396Z,18.60
2018-07-21T03:44:30.397Z,18.60
2018-07-21T03:47:01.763Z,18.60
2018-07-21T03:49:33.116Z,18.50
2018-07-21T03:52:04.977Z,18.50
2018-07-21T03:54:36.413Z,18.50
2018-07-21T03:57:07.910Z,18.60
2018-07-21T03:59:39.126Z,18.60
2018-07-21T04:02:10.572Z,18.60
2018-07-21T04:04:41.756Z,18.60
2018-07-21T04:07:12.946Z,18.50
2018-07-21T04:09:44.547Z,18.40
2018-07-21T04:12:16.088Z,18.40
2018-07-21T04:14:47.530Z,18.60
2018-07-21T04:17:26.672Z,18.60
2018-07-21T04:19:58.569Z,18.70
2018-07-21T04:22:30.554Z,18.70
2018-07-21T04:25:01.859Z,18.70
2018-07-21T04:27:33.295Z,18.60
2018-07-21T04:30:04.774Z,18.60
2018-07-21T04:32:37.025Z,18.60
2018-07-21T04:35:09.506Z,18.50
2018-07-21T04:37:41.831Z,18.60
2018-07-21T04:40:15.712Z,18.70
2018-07-21T04:42:46.845Z,18.70
2018-07-21T04:45:19.227Z,18.80
2018-07-21T04:47:50.514Z,18.90
2018-07-21T04:50:22.058Z,18.80
2018-07-21T04:52:54.424Z,18.70
2018-07-21T04:55:26.241Z,18.70
2018-07-21T04:57:57.605Z,18.60
2018-07-21T05:00:29.293Z,18.60
2018-07-21T05:03:00.746Z,18.70
2018-07-21T05:05:32.043Z,18.70
2018-07-21T05:08:03.988Z,18.60
2018-07-21T05:10:35.349Z,18.60
2018-07-21T05:13:06.668Z,18.70
2018-07-21T05:15:46.769Z,18.80
2018-07-21T05:18:18.117Z,19.10
2018-07-21T05:20:50.482Z,19.30
2018-07-21T05:23:21.758Z,19.10
2018-07-21T05:25:53.011Z,19.10
2018-07-21T05:28:24.264Z,18.90
2018-07-21T05:30:55.611Z,18.90
2018-07-21T05:33:27.192Z,18.80
2018-07-21T05:35:58.578Z,18.80
2018-07-21T05:38:29.800Z,18.80
2018-07-21T05:41:01.165Z,18.70
2018-07-21T05:43:32.803Z,18.80
2018-07-21T05:46:04.318Z,18.70
2018-07-21T05:48:35.788Z,18.90
2018-07-21T05:51:07.803Z,19.00
2018-07-21T05:53:39.154Z,19.10
2018-07-21T05:56:10.876Z,19.20
2018-07-21T05:58:42.051Z,19.20
2018-07-21T06:01:15.260Z,19.20
2018-07-21T06:03:46.591Z,19.30
2018-07-21T06:06:18.013Z,19.40
2018-07-21T06:08:49.339Z,19.50
2018-07-21T06:11:20.747Z,19.80
2018-07-21T06:13:52.109Z,19.80
2018-07-21T06:16:23.493Z,19.90
2018-07-21T06:18:54.725Z,20.20
2018-07-21T06:21:26.881Z,20.20
2018-07-21T06:23:58.197Z,20.40
2018-07-21T06:26:29.586Z,20.40
2018-07-21T06:29:00.862Z,20.70
2018-07-21T06:31:32.246Z,21.00
2018-07-21T06:34:08.449Z,20.80
2018-07-21T06:36:40.910Z,20.60
2018-07-21T06:39:13.777Z,20.90
2018-07-21T06:41:45.166Z,21.30
2018-07-21T06:44:17.352Z,20.80
2018-07-21T06:46:48.886Z,20.70
2018-07-21T06:49:20.154Z,21.00
2018-07-21T06:51:51.633Z,21.20
2018-07-21T06:56:54.611Z,21.70
2018-07-21T06:59:26.369Z,22.00
2018-07-21T07:01:58.088Z,22.10
2018-07-21T07:04:29.756Z,22.10
2018-07-21T07:07:01.134Z,22.20
2018-07-21T07:09:32.516Z,22.60
2018-07-21T07:12:03.892Z,22.50
2018-07-21T07:14:35.152Z,23.00
2018-07-21T07:17:07.459Z,22.90
2018-07-21T07:19:38.990Z,23.00
2018-07-21T07:22:10.383Z,22.90
2018-07-21T07:24:42.430Z,23.40
2018-07-21T07:27:14.065Z,23.50
2018-07-21T07:29:46.060Z,24.10
2018-07-21T07:32:18.604Z,23.90
2018-07-21T07:34:51.782Z,23.40
2018-07-21T07:37:27.157Z,23.30
2018-07-21T07:39:58.884Z,22.90
2018-07-21T07:42:32.211Z,22.60
2018-07-21T07:45:03.610Z,22.60
2018-07-21T07:47:35.000Z,22.90
2018-07-21T07:50:06.361Z,22.70
2018-07-21T07:52:37.879Z,22.80
2018-07-21T07:55:09.365Z,22.60
2018-07-21T07:57:40.816Z,22.60
2018-07-21T08:00:15.578Z,22.40
2018-07-21T08:05:19.602Z,23.00
2018-07-21T08:07:50.994Z,23.10
2018-07-21T08:10:22.419Z,23.00
2018-07-21T08:12:54.504Z,23.10
2018-07-21T08:15:25.859Z,23.50
2018-07-21T08:17:57.206Z,23.80
2018-07-21T08:20:28.717Z,24.20
2018-07-21T08:23:00.065Z,24.00
2018-07-21T08:25:31.794Z,23.70
2018-07-21T08:28:03.081Z,23.80
2018-07-21T08:30:34.368Z,23.60
2018-07-21T08:33:05.710Z,23.30
2018-07-21T08:35:37.066Z,23.20
2018-07-21T08:38:08.623Z,23.70
2018-07-21T08:40:39.934Z,23.50
2018-07-21T08:43:12.549Z,23.80
2018-07-21T08:45:44.202Z,23.60
2018-07-21T08:48:15.566Z,23.60
2018-07-21T08:54:54.461Z,23.80
2018-07-21T08:57:28.274Z,23.90
2018-07-21T08:59:59.667Z,23.90
2018-07-21T09:02:32.307Z,24.20
2018-07-21T09:05:04.254Z,24.40
